NWWM

Nouméa Magenta Airport

Nouméa, New Caledonia
TAF NWWM 171100Z 1712/1812 VRB02KT 9999 SCT040 SCT060
Issued Valid From Valid To
Aug-17 @ 11:00 UTC
(4 hours ago)
Aug-17 @ 12:00 UTC
(3 hours ago)
Aug-18 @ 12:00 UTC
(in 21 hours)
Aug-17 @ 12:00 to Aug-18 @ 12:00
TAF NWWM 171100Z 1712/1812 VRB02KT 9999 SCT040 SCT060
Wind Visibility Clouds
Variable at 2 knots 10,000+ meters
  • Scattered at 4,000' AGL
  • Scattered at 6,000' AGL
TAF NWWM 171100Z 1712/1812 VRB02KT 9999 SCT040 SCT060
Issued Aug-17 @ 11:00 UTC
(4 hours ago)
Valid From Aug-17 @ 12:00 UTC
(3 hours ago)
Valid To Aug-18 @ 12:00 UTC
(in 21 hours)
Aug-17 @ 12:00 - Aug-18 @ 12:00
Wind Visibility
Variable at 2 knots 10,000+ meters
Clouds
  • Scattered at 4,000' AGL
  • Scattered at 6,000' AGL